Puerto Barrios Airport Puerto Barrios US
ICAO: MGPB
IATA: PBR
Category: Medium
Scheduled Services: Yes

Elevation: 33 ft
TransAlt. 0 ft.

Airport Communications:
TWR:118.4

MGPB Zoom In..

If you have problems with the map follow the link
https://www.worldairports.se/pages/airport.php?
ICAO=MGPB

Runways:

(A) RW 12 length 8850 ft width 115 ft
---- / hdg 127

(B) RW 30 length 8850 ft width 115 ft
---- / hdg 307

Location; MGPB
Day. 16 / Time. 00.00 Zulu
* Altimeter: 29.91
* Temperature: 26° c. 78.8°f.
* Wind from: 000° Speed 00 kn.
Dewpoint: 22° c.
Visibility: 10 km or more.
Clouds: Few 1700 ft.

MGPB 160000Z 00000KT 9999 FEW017 26/22 Q1013 A2991


Wind - Calm.

 
 
jpsmedia worldairports.se 2019   terms of use